createdAt,value
2023-09-23T00:00:54.825Z,1002.17
2023-09-23T00:01:54.198Z,1002.14
2023-09-23T00:02:54.202Z,1002.19
2023-09-23T00:03:54.280Z,1002.19
2023-09-23T00:04:54.850Z,1002.27
2023-09-23T00:05:54.756Z,1002.27
2023-09-23T00:06:55.021Z,1002.27
2023-09-23T00:07:54.775Z,1002.27
2023-09-23T00:08:54.056Z,1002.24
2023-09-23T00:09:54.705Z,1002.31
2023-09-23T00:10:54.729Z,1002.32
2023-09-23T00:11:54.701Z,1002.35
2023-09-23T00:12:54.668Z,1002.38
2023-09-23T00:13:54.239Z,1002.41
2023-09-23T00:14:53.975Z,1002.36
2023-09-23T00:15:54.681Z,1002.40
2023-09-23T00:16:54.735Z,1002.45
2023-09-23T00:17:54.620Z,1002.46
2023-09-23T00:18:54.604Z,1002.47
2023-09-23T00:19:53.966Z,1002.51
2023-09-23T00:20:54.583Z,1002.56
2023-09-23T00:21:53.897Z,1002.54
2023-09-23T00:22:53.921Z,1002.56
2023-09-23T00:23:54.552Z,1002.56
2023-09-23T00:24:53.888Z,1002.56
2023-09-23T00:25:53.912Z,1002.57
2023-09-23T00:26:53.867Z,1002.62
2023-09-23T00:27:54.507Z,1002.61
2023-09-23T00:28:54.507Z,1002.63
2023-09-23T00:29:53.813Z,1002.62
2023-09-23T00:30:54.540Z,1002.63
2023-09-23T00:31:53.863Z,1002.65
2023-09-23T00:32:54.804Z,1002.68
2023-09-23T00:33:54.442Z,1002.70
2023-09-23T00:34:54.473Z,1002.69
2023-09-23T00:35:54.418Z,1002.69
2023-09-23T00:36:54.383Z,1002.68
2023-09-23T00:37:54.402Z,1002.68
2023-09-23T00:38:54.388Z,1002.73
2023-09-23T00:39:54.366Z,1002.73
2023-09-23T00:40:54.371Z,1002.73
2023-09-23T00:41:54.376Z,1002.73
2023-09-23T00:42:54.345Z,1002.75
2023-09-23T00:43:54.363Z,1002.79
2023-09-23T00:44:54.320Z,1002.81
2023-09-23T00:45:54.316Z,1002.80
2023-09-23T00:46:54.342Z,1002.80
2023-09-23T00:47:54.372Z,1002.83
2023-09-23T00:48:55.514Z,1002.81
2023-09-23T00:49:54.311Z,1002.86
2023-09-23T00:50:54.238Z,1002.89
2023-09-23T00:51:54.258Z,1002.90
2023-09-23T00:52:54.410Z,1002.91
2023-09-23T00:53:54.216Z,1002.93
2023-09-23T00:54:54.192Z,1002.97
2023-09-23T00:55:54.358Z,1002.98
2023-09-23T00:56:54.184Z,1002.97
2023-09-23T00:57:54.178Z,1002.98
2023-09-23T00:58:54.185Z,1002.99
2023-09-23T00:59:54.140Z,1003.03
2023-09-23T01:00:55.387Z,1003.03
2023-09-23T01:01:54.201Z,1003.04
2023-09-23T01:02:54.204Z,1003.04
2023-09-23T01:03:54.254Z,1003.00
2023-09-23T01:04:54.101Z,1002.98
2023-09-23T01:05:55.861Z,1003.02
2023-09-23T01:06:54.079Z,1003.00
2023-09-23T01:07:54.141Z,1003.03
2023-09-23T01:08:54.041Z,1003.09
2023-09-23T01:09:54.040Z,1003.08
2023-09-23T01:10:54.088Z,1003.08
2023-09-23T01:11:54.025Z,1003.07
2023-09-23T01:12:54.773Z,1003.10
2023-09-23T01:13:54.003Z,1003.10
2023-09-23T01:14:53.996Z,1003.15
2023-09-23T01:15:54.001Z,1003.14
2023-09-23T01:16:54.014Z,1003.15
2023-09-23T01:17:53.964Z,1003.19
2023-09-23T01:18:53.949Z,1003.14
2023-09-23T01:19:53.944Z,1003.18
2023-09-23T01:20:53.923Z,1003.16
2023-09-23T01:21:53.915Z,1003.22
2023-09-23T01:22:54.205Z,1003.20
2023-09-23T01:23:53.885Z,1003.24
2023-09-23T01:24:55.156Z,1003.23
2023-09-23T01:25:53.907Z,1003.23
2023-09-23T01:26:53.865Z,1003.23
2023-09-23T01:27:53.845Z,1003.23
2023-09-23T01:28:53.879Z,1003.24
2023-09-23T01:29:55.618Z,1003.26
2023-09-23T01:30:53.823Z,1003.27
2023-09-23T01:31:53.881Z,1003.28
2023-09-23T01:32:53.852Z,1003.29
2023-09-23T01:33:53.804Z,1003.28
2023-09-23T01:34:55.040Z,1003.31
2023-09-23T01:35:53.756Z,1003.33
2023-09-23T01:36:53.730Z,1003.34
2023-09-23T01:37:53.762Z,1003.35
2023-09-23T01:38:53.727Z,1003.40
2023-09-23T01:39:53.021Z,1003.37
2023-09-23T01:40:53.027Z,1003.41
2023-09-23T01:41:53.690Z,1003.42
2023-09-23T01:42:53.682Z,1003.40
2023-09-23T01:43:53.010Z,1003.47
2023-09-23T01:44:53.662Z,1003.47
2023-09-23T01:45:54.441Z,1003.48
2023-09-23T01:46:53.338Z,1003.48
2023-09-23T01:47:53.692Z,1003.52
2023-09-23T01:48:53.615Z,1003.54
2023-09-23T01:49:53.616Z,1003.52
2023-09-23T01:50:53.576Z,1003.55
2023-09-23T01:51:53.612Z,1003.57
2023-09-23T01:52:52.979Z,1003.57
2023-09-23T01:53:52.863Z,1003.54
2023-09-23T01:54:52.886Z,1003.60
2023-09-23T01:55:52.881Z,1003.57
2023-09-23T01:56:53.530Z,1003.62
2023-09-23T01:57:54.276Z,1003.60
2023-09-23T01:58:52.876Z,1003.66
2023-09-23T01:59:52.837Z,1003.66
2023-09-23T02:00:52.839Z,1003.65
2023-09-23T02:01:53.622Z,1003.66
2023-09-23T02:02:53.624Z,1003.63
2023-09-23T02:03:52.812Z,1003.68
2023-09-23T02:04:52.832Z,1003.66
2023-09-23T02:05:52.757Z,1003.67
2023-09-23T02:06:53.416Z,1003.70
2023-09-23T02:07:53.430Z,1003.68
2023-09-23T02:08:53.394Z,1003.66
2023-09-23T02:09:54.171Z,1003.68
2023-09-23T02:10:53.413Z,1003.71
2023-09-23T02:11:53.361Z,1003.72
2023-09-23T02:12:53.353Z,1003.76
2023-09-23T02:13:53.391Z,1003.78
2023-09-23T02:14:53.334Z,1003.81
2023-09-23T02:15:53.324Z,1003.79
2023-09-23T02:16:53.355Z,1003.81
2023-09-23T02:17:53.358Z,1003.82
2023-09-23T02:18:53.284Z,1003.82
2023-09-23T02:19:53.368Z,1003.84
2023-09-23T02:20:53.268Z,1003.90
2023-09-23T02:21:54.007Z,1003.90
2023-09-23T02:22:54.038Z,1003.88
2023-09-23T02:23:53.230Z,1003.97
2023-09-23T02:24:53.230Z,1003.93
2023-09-23T02:25:53.351Z,1003.96
2023-09-23T02:26:53.200Z,1003.98
2023-09-23T02:27:52.523Z,1004.01
2023-09-23T02:28:52.511Z,1004.01
2023-09-23T02:29:52.493Z,1004.03
2023-09-23T02:30:53.219Z,1004.06
2023-09-23T02:31:52.480Z,1004.07
2023-09-23T02:32:53.196Z,1004.05
2023-09-23T02:33:54.398Z,1004.10
2023-09-23T02:34:53.154Z,1004.15
2023-09-23T02:35:53.113Z,1004.20
2023-09-23T02:36:52.471Z,1004.22
2023-09-23T02:37:53.162Z,1004.22
2023-09-23T02:38:52.395Z,1004.26
2023-09-23T02:39:53.065Z,1004.23
2023-09-23T02:40:52.433Z,1004.24
2023-09-23T02:41:52.388Z,1004.26
2023-09-23T02:42:53.048Z,1004.24
2023-09-23T02:43:53.065Z,1004.26
2023-09-23T02:44:53.015Z,1004.29
2023-09-23T02:45:54.241Z,1004.30
2023-09-23T02:46:53.055Z,1004.27
2023-09-23T02:47:52.996Z,1004.29
2023-09-23T02:48:52.970Z,1004.33
2023-09-23T02:49:52.295Z,1004.35
2023-09-23T02:50:52.936Z,1004.30
2023-09-23T02:51:52.935Z,1004.35
2023-09-23T02:52:52.957Z,1004.34
2023-09-23T02:53:52.234Z,1004.39
2023-09-23T02:54:52.912Z,1004.44
2023-09-23T02:55:52.262Z,1004.42
2023-09-23T02:56:52.891Z,1004.41
2023-09-23T02:57:52.411Z,1004.39
2023-09-23T02:58:52.228Z,1004.39
2023-09-23T02:59:52.833Z,1004.44
2023-09-23T03:00:52.170Z,1004.46
2023-09-23T03:01:52.225Z,1004.49
2023-09-23T03:02:52.980Z,1004.43
2023-09-23T03:03:52.904Z,1004.42
2023-09-23T03:04:52.187Z,1004.43
2023-09-23T03:05:52.896Z,1004.49
2023-09-23T03:06:52.080Z,1004.47
2023-09-23T03:07:52.782Z,1004.49
2023-09-23T03:08:52.086Z,1004.53
2023-09-23T03:09:52.727Z,1004.53
2023-09-23T03:10:52.072Z,1004.58
2023-09-23T03:11:52.975Z,1004.55
2023-09-23T03:12:52.056Z,1004.56
2023-09-23T03:13:52.715Z,1004.56
2023-09-23T03:14:54.456Z,1004.59
2023-09-23T03:15:51.997Z,1004.58
2023-09-23T03:16:54.031Z,1004.63
2023-09-23T03:17:52.686Z,1004.60
2023-09-23T03:18:52.630Z,1004.63
2023-09-23T03:19:51.999Z,1004.68
2023-09-23T03:20:51.951Z,1004.63
2023-09-23T03:21:51.933Z,1004.64
2023-09-23T03:22:52.630Z,1004.67
2023-09-23T03:23:51.926Z,1004.62
2023-09-23T03:24:52.575Z,1004.60
2023-09-23T03:25:52.713Z,1004.61
2023-09-23T03:26:52.554Z,1004.59
2023-09-23T03:27:51.864Z,1004.61
2023-09-23T03:28:51.867Z,1004.55
2023-09-23T03:29:51.829Z,1004.55
2023-09-23T03:30:51.815Z,1004.57
2023-09-23T03:31:51.906Z,1004.56
2023-09-23T03:32:52.490Z,1004.57
2023-09-23T03:33:51.877Z,1004.60
2023-09-23T03:34:52.044Z,1004.65
2023-09-23T03:35:52.450Z,1004.61
2023-09-23T03:36:52.417Z,1004.56
2023-09-23T03:37:52.425Z,1004.61
2023-09-23T03:38:52.668Z,1004.63
2023-09-23T03:39:52.398Z,1004.62
2023-09-23T03:40:52.521Z,1004.64
2023-09-23T03:41:51.707Z,1004.65
2023-09-23T03:42:51.696Z,1004.63
2023-09-23T03:43:51.708Z,1004.61
2023-09-23T03:44:51.661Z,1004.58
2023-09-23T03:45:53.581Z,1004.63
2023-09-23T03:46:51.828Z,1004.62
2023-09-23T03:47:51.730Z,1004.62
2023-09-23T03:48:52.300Z,1004.65
2023-09-23T03:49:52.582Z,1004.66
2023-09-23T03:50:52.281Z,1004.67
2023-09-23T03:51:51.640Z,1004.63
2023-09-23T03:52:52.350Z,1004.67
2023-09-23T03:53:52.250Z,1004.68
2023-09-23T03:54:52.243Z,1004.68
2023-09-23T03:55:51.645Z,1004.74
2023-09-23T03:56:52.210Z,1004.75
2023-09-23T03:57:53.434Z,1004.74
2023-09-23T03:58:52.254Z,1004.75
2023-09-23T03:59:51.900Z,1004.79
2023-09-23T04:00:52.151Z,1004.79
2023-09-23T04:01:51.580Z,1004.78
2023-09-23T04:02:53.969Z,1004.75
2023-09-23T04:03:51.532Z,1004.78
2023-09-23T04:04:52.137Z,1004.78
2023-09-23T04:05:52.098Z,1004.77
2023-09-23T04:06:52.128Z,1004.80
2023-09-23T04:07:51.777Z,1004.83
2023-09-23T04:08:52.080Z,1004.80
2023-09-23T04:09:52.356Z,1004.77
2023-09-23T04:10:52.168Z,1004.82
2023-09-23T04:11:53.178Z,1004.86
2023-09-23T04:12:51.368Z,1004.88
2023-09-23T04:13:51.413Z,1004.82
2023-09-23T04:14:51.995Z,1004.81
2023-09-23T04:15:51.444Z,1004.84
2023-09-23T04:16:52.029Z,1004.77
2023-09-23T04:17:51.343Z,1004.78
2023-09-23T04:18:51.953Z,1004.78
2023-09-23T04:19:52.038Z,1004.86
2023-09-23T04:20:51.991Z,1004.88
2023-09-23T04:21:53.177Z,1004.87
2023-09-23T04:22:51.240Z,1004.90
2023-09-23T04:23:51.255Z,1004.96
2023-09-23T04:24:51.224Z,1004.91
2023-09-23T04:25:51.974Z,1004.93
2023-09-23T04:26:53.141Z,1004.94
2023-09-23T04:27:51.194Z,1004.94
2023-09-23T04:28:51.965Z,1004.98
2023-09-23T04:29:51.941Z,1004.95
2023-09-23T04:30:51.150Z,1004.95
2023-09-23T04:31:51.854Z,1004.99
2023-09-23T04:32:51.854Z,1005.00
2023-09-23T04:33:53.079Z,1005.03
2023-09-23T04:34:51.846Z,1005.05
2023-09-23T04:35:51.131Z,1005.09
2023-09-23T04:36:51.088Z,1005.08
2023-09-23T04:37:51.755Z,1005.11
2023-09-23T04:38:51.771Z,1005.13
2023-09-23T04:39:51.815Z,1005.16
2023-09-23T04:40:51.775Z,1005.20
2023-09-23T04:41:51.705Z,1005.15
2023-09-23T04:42:51.695Z,1005.21
2023-09-23T04:43:51.750Z,1005.23
2023-09-23T04:44:51.696Z,1005.24
2023-09-23T04:45:53.457Z,1005.26
2023-09-23T04:46:51.036Z,1005.32
2023-09-23T04:47:51.000Z,1005.32
2023-09-23T04:48:51.650Z,1005.32
2023-09-23T04:49:51.703Z,1005.35
2023-09-23T04:50:51.627Z,1005.33
2023-09-23T04:51:52.203Z,1005.36
2023-09-23T04:52:51.840Z,1005.39
2023-09-23T04:53:51.608Z,1005.47
2023-09-23T04:54:51.581Z,1005.39
2023-09-23T04:55:51.627Z,1005.44
2023-09-23T04:56:50.894Z,1005.45
2023-09-23T04:57:52.797Z,1005.46
2023-09-23T04:58:50.908Z,1005.46
2023-09-23T04:59:50.836Z,1005.50
2023-09-23T05:00:50.924Z,1005.47
2023-09-23T05:01:50.867Z,1005.56
2023-09-23T05:02:51.864Z,1005.57
2023-09-23T05:03:50.844Z,1005.53
2023-09-23T05:04:50.819Z,1005.54
2023-09-23T05:05:51.485Z,1005.56
2023-09-23T05:06:51.472Z,1005.57
2023-09-23T05:07:51.494Z,1005.55
2023-09-23T05:08:51.475Z,1005.56
2023-09-23T05:09:52.191Z,1005.54
2023-09-23T05:10:50.812Z,1005.55
2023-09-23T05:11:50.717Z,1005.56
2023-09-23T05:12:51.389Z,1005.58
2023-09-23T05:13:51.422Z,1005.57
2023-09-23T05:14:54.129Z,1005.59
2023-09-23T05:15:50.696Z,1005.63
2023-09-23T05:16:50.690Z,1005.64
2023-09-23T05:17:50.774Z,1005.69
2023-09-23T05:18:50.709Z,1005.67
2023-09-23T05:19:50.807Z,1005.67
2023-09-23T05:20:52.077Z,1005.69
2023-09-23T05:21:52.066Z,1005.68
2023-09-23T05:22:50.612Z,1005.76
2023-09-23T05:23:50.592Z,1005.73
2023-09-23T05:24:50.569Z,1005.74
2023-09-23T05:25:50.587Z,1005.77
2023-09-23T05:26:51.229Z,1005.78
2023-09-23T05:27:50.531Z,1005.81
2023-09-23T05:28:51.227Z,1005.83
2023-09-23T05:29:51.204Z,1005.86
2023-09-23T05:30:50.544Z,1005.87
2023-09-23T05:31:50.544Z,1005.89
2023-09-23T05:32:51.185Z,1005.87
2023-09-23T05:33:51.428Z,1005.90
2023-09-23T05:34:50.463Z,1005.90
2023-09-23T05:35:50.462Z,1005.95
2023-09-23T05:36:50.457Z,1005.99
2023-09-23T05:37:51.561Z,1005.98
2023-09-23T05:38:51.099Z,1005.97
2023-09-23T05:39:50.407Z,1006.00
2023-09-23T05:40:52.865Z,1006.00
2023-09-23T05:41:51.069Z,1006.08
2023-09-23T05:42:51.040Z,1006.04
2023-09-23T05:43:51.067Z,1006.09
2023-09-23T05:44:51.043Z,1006.10
2023-09-23T05:45:51.287Z,1006.14
2023-09-23T05:46:50.439Z,1006.08
2023-09-23T05:47:50.554Z,1006.15
2023-09-23T05:48:50.320Z,1006.18
2023-09-23T05:49:50.330Z,1006.18
2023-09-23T05:50:50.309Z,1006.15
2023-09-23T05:51:50.280Z,1006.19
2023-09-23T05:52:50.356Z,1006.19
2023-09-23T05:53:50.239Z,1006.25
2023-09-23T05:54:50.250Z,1006.29
2023-09-23T05:55:50.969Z,1006.35
2023-09-23T05:56:50.910Z,1006.31
2023-09-23T05:57:50.921Z,1006.33
2023-09-23T05:58:50.928Z,1006.40
2023-09-23T05:59:52.711Z,1006.44
2023-09-23T06:00:51.183Z,1006.43
2023-09-23T06:01:50.906Z,1006.50
2023-09-23T06:02:50.947Z,1006.48
2023-09-23T06:03:50.489Z,1006.50
2023-09-23T06:04:50.160Z,1006.53
2023-09-23T06:05:50.803Z,1006.54
2023-09-23T06:06:50.806Z,1006.53
2023-09-23T06:07:50.851Z,1006.54
2023-09-23T06:08:50.782Z,1006.55
2023-09-23T06:09:50.104Z,1006.58
2023-09-23T06:10:50.176Z,1006.60
2023-09-23T06:11:50.761Z,1006.60
2023-09-23T06:12:50.741Z,1006.60
2023-09-23T06:13:50.091Z,1006.65
2023-09-23T06:14:50.700Z,1006.69
2023-09-23T06:15:50.007Z,1006.68
2023-09-23T06:16:50.233Z,1006.68
2023-09-23T06:17:50.168Z,1006.71
2023-09-23T06:18:50.005Z,1006.73
2023-09-23T06:19:50.666Z,1006.79
2023-09-23T06:20:49.975Z,1006.80
2023-09-23T06:21:49.958Z,1006.81
2023-09-23T06:22:49.969Z,1006.88
2023-09-23T06:23:49.967Z,1006.86
2023-09-23T06:24:50.603Z,1006.90
2023-09-23T06:25:50.640Z,1006.90
2023-09-23T06:26:49.898Z,1006.98
2023-09-23T06:27:49.895Z,1006.98
2023-09-23T06:28:49.927Z,1007.04
2023-09-23T06:29:52.301Z,1007.03
2023-09-23T06:30:50.598Z,1007.00
2023-09-23T06:31:49.859Z,1007.08
2023-09-23T06:32:50.538Z,1007.07
2023-09-23T06:33:50.493Z,1007.06
2023-09-23T06:34:49.839Z,1007.12
2023-09-23T06:35:52.208Z,1007.10
2023-09-23T06:36:49.774Z,1007.07
2023-09-23T06:37:49.833Z,1007.12
2023-09-23T06:38:50.453Z,1007.15
2023-09-23T06:39:49.766Z,1007.14
2023-09-23T06:40:49.782Z,1007.21
2023-09-23T06:41:50.429Z,1007.19
2023-09-23T06:42:50.390Z,1007.21
2023-09-23T06:43:49.724Z,1007.22
2023-09-23T06:44:49.705Z,1007.22
2023-09-23T06:45:50.384Z,1007.22
2023-09-23T06:46:50.472Z,1007.23
2023-09-23T06:47:50.425Z,1007.26
2023-09-23T06:48:50.352Z,1007.26
2023-09-23T06:49:49.674Z,1007.30
2023-09-23T06:50:50.315Z,1007.29
2023-09-23T06:51:50.301Z,1007.31
2023-09-23T06:52:50.319Z,1007.35
2023-09-23T06:53:49.942Z,1007.36
2023-09-23T06:54:49.597Z,1007.36
2023-09-23T06:55:50.304Z,1007.33
2023-09-23T06:56:51.041Z,1007.39
2023-09-23T06:57:50.246Z,1007.40
2023-09-23T06:58:50.235Z,1007.47
2023-09-23T06:59:50.230Z,1007.41
2023-09-23T07:00:50.207Z,1007.43
2023-09-23T07:01:49.800Z,1007.45
2023-09-23T07:02:50.288Z,1007.43
2023-09-23T07:03:51.870Z,1007.44
2023-09-23T07:04:49.655Z,1007.42
2023-09-23T07:05:51.022Z,1007.44
2023-09-23T07:06:50.145Z,1007.46
2023-09-23T07:07:50.168Z,1007.54
2023-09-23T07:08:50.124Z,1007.55
2023-09-23T07:09:49.456Z,1007.54
2023-09-23T07:10:50.896Z,1007.55
2023-09-23T07:11:49.418Z,1007.51
2023-09-23T07:12:49.410Z,1007.47
2023-09-23T07:13:50.141Z,1007.55
2023-09-23T07:14:50.054Z,1007.53
2023-09-23T07:15:50.818Z,1007.49
2023-09-23T07:16:50.119Z,1007.59
2023-09-23T07:17:50.064Z,1007.69
2023-09-23T07:18:50.018Z,1007.64
2023-09-23T07:19:50.033Z,1007.62
2023-09-23T07:20:49.320Z,1007.63
2023-09-23T07:21:50.243Z,1007.69
2023-09-23T07:22:50.038Z,1007.70
2023-09-23T07:23:49.942Z,1007.72
2023-09-23T07:24:49.297Z,1007.73
2023-09-23T07:25:49.294Z,1007.80
2023-09-23T07:26:49.931Z,1007.79
2023-09-23T07:27:51.184Z,1007.98
2023-09-23T07:28:49.966Z,1008.00
2023-09-23T07:29:49.894Z,1007.93
2023-09-23T07:30:49.972Z,1007.85
2023-09-23T07:31:49.902Z,1007.84
2023-09-23T07:32:49.884Z,1007.87
2023-09-23T07:33:50.243Z,1007.83
2023-09-23T07:34:49.875Z,1007.91
2023-09-23T07:35:49.830Z,1007.88
2023-09-23T07:36:49.820Z,1007.93
2023-09-23T07:37:49.848Z,1007.93
2023-09-23T07:38:49.781Z,1007.95
2023-09-23T07:39:49.720Z,1008.00
2023-09-23T07:40:49.892Z,1007.97
2023-09-23T07:41:49.770Z,1008.02
2023-09-23T07:42:49.746Z,1008.02
2023-09-23T07:43:49.788Z,1008.04
2023-09-23T07:44:49.054Z,1008.03
2023-09-23T07:45:50.524Z,1008.04
2023-09-23T07:46:49.070Z,1008.09
2023-09-23T07:47:49.060Z,1008.08
2023-09-23T07:48:49.691Z,1008.10
2023-09-23T07:49:49.122Z,1008.11
2023-09-23T07:50:49.667Z,1008.17
2023-09-23T07:51:49.678Z,1008.18
2023-09-23T07:52:49.027Z,1008.19
2023-09-23T07:53:49.631Z,1008.22
2023-09-23T07:54:49.622Z,1008.22
2023-09-23T07:55:49.648Z,1008.22
2023-09-23T07:56:49.576Z,1008.24
2023-09-23T07:57:49.584Z,1008.26
2023-09-23T07:58:49.607Z,1008.33
2023-09-23T07:59:48.883Z,1008.34
2023-09-23T08:00:49.565Z,1008.31
2023-09-23T08:01:49.595Z,1008.32
2023-09-23T08:02:49.708Z,1008.36
2023-09-23T08:03:49.556Z,1008.34
2023-09-23T08:04:48.890Z,1008.43
2023-09-23T08:05:48.939Z,1008.37
2023-09-23T08:06:49.489Z,1008.43
2023-09-23T08:07:49.489Z,1008.41
2023-09-23T08:08:49.708Z,1008.40
2023-09-23T08:09:48.778Z,1008.44
2023-09-23T08:10:48.906Z,1008.45
2023-09-23T08:11:49.444Z,1008.51
2023-09-23T08:12:51.200Z,1008.49
2023-09-23T08:13:49.448Z,1008.51
2023-09-23T08:14:49.382Z,1008.52
2023-09-23T08:15:49.427Z,1008.51
2023-09-23T08:16:49.407Z,1008.58
2023-09-23T08:17:49.400Z,1008.60
2023-09-23T08:18:50.121Z,1008.57
2023-09-23T08:19:49.403Z,1008.64
2023-09-23T08:20:49.332Z,1008.70
2023-09-23T08:21:48.682Z,1008.64
2023-09-23T08:22:48.830Z,1008.66
2023-09-23T08:23:49.300Z,1008.71
2023-09-23T08:24:49.276Z,1008.69
2023-09-23T08:25:49.349Z,1008.70
2023-09-23T08:26:49.270Z,1008.76
2023-09-23T08:27:49.280Z,1008.75
2023-09-23T08:28:49.256Z,1008.80
2023-09-23T08:29:51.037Z,1008.78
2023-09-23T08:30:49.226Z,1008.82
2023-09-23T08:31:48.623Z,1008.74
2023-09-23T08:32:49.271Z,1008.81
2023-09-23T08:33:49.422Z,1008.84
2023-09-23T08:34:48.493Z,1008.92
2023-09-23T08:35:48.555Z,1008.90
2023-09-23T08:36:48.522Z,1008.90
2023-09-23T08:37:48.506Z,1008.87
2023-09-23T08:38:48.748Z,1008.89
2023-09-23T08:39:49.130Z,1008.92
2023-09-23T08:40:48.424Z,1008.86
2023-09-23T08:41:49.383Z,1008.89
2023-09-23T08:42:48.435Z,1008.93
2023-09-23T08:43:49.072Z,1008.88
2023-09-23T08:44:48.375Z,1008.88
2023-09-23T08:45:49.107Z,1008.89
2023-09-23T08:46:49.055Z,1008.87
2023-09-23T08:47:49.034Z,1008.91
2023-09-23T08:48:49.253Z,1008.98
2023-09-23T08:49:48.364Z,1009.04
2023-09-23T08:50:48.327Z,1009.05
2023-09-23T08:51:48.967Z,1009.02
2023-09-23T08:52:48.327Z,1009.04
2023-09-23T08:53:48.978Z,1009.06
2023-09-23T08:54:48.964Z,1009.03
2023-09-23T08:55:48.950Z,1009.06
2023-09-23T08:56:48.932Z,1009.03
2023-09-23T08:57:48.913Z,1009.09
2023-09-23T08:58:48.924Z,1009.09
2023-09-23T08:59:48.910Z,1009.08
2023-09-23T09:00:48.967Z,1009.07
2023-09-23T09:01:48.872Z,1009.05
2023-09-23T09:02:48.226Z,1009.05
2023-09-23T09:03:48.197Z,1009.11
2023-09-23T09:04:49.119Z,1009.13
2023-09-23T09:05:48.291Z,1009.12
2023-09-23T09:06:48.867Z,1009.09
2023-09-23T09:07:48.147Z,1009.08
2023-09-23T09:08:49.115Z,1009.11
2023-09-23T09:09:48.877Z,1009.14
2023-09-23T09:10:49.192Z,1009.17
2023-09-23T09:11:48.799Z,1009.21
2023-09-23T09:12:48.788Z,1009.23
2023-09-23T09:13:48.752Z,1009.22
2023-09-23T09:14:48.734Z,1009.24
2023-09-23T09:15:48.742Z,1009.22
2023-09-23T09:16:49.465Z,1009.27
2023-09-23T09:17:48.718Z,1009.31
2023-09-23T09:18:48.733Z,1009.29
2023-09-23T09:19:50.621Z,1009.32
2023-09-23T09:20:48.665Z,1009.38
2023-09-23T09:21:48.667Z,1009.38
2023-09-23T09:22:48.653Z,1009.40
2023-09-23T09:23:48.713Z,1009.40
2023-09-23T09:24:48.632Z,1009.37
2023-09-23T09:25:48.645Z,1009.40
2023-09-23T09:26:47.928Z,1009.45
2023-09-23T09:27:48.610Z,1009.46
2023-09-23T09:28:48.550Z,1009.47
2023-09-23T09:29:50.347Z,1009.51
2023-09-23T09:30:49.562Z,1009.50
2023-09-23T09:31:48.615Z,1009.49
2023-09-23T09:32:48.694Z,1009.51
2023-09-23T09:33:48.530Z,1009.52
2023-09-23T09:34:48.658Z,1009.54
2023-09-23T09:35:48.529Z,1009.61
2023-09-23T09:36:48.507Z,1009.56
2023-09-23T09:37:50.195Z,1009.61
2023-09-23T09:38:48.655Z,1009.62
2023-09-23T09:39:48.470Z,1009.65
2023-09-23T09:40:48.498Z,1009.63
2023-09-23T09:41:48.448Z,1009.63
2023-09-23T09:42:49.503Z,1009.59
2023-09-23T09:43:48.410Z,1009.61
2023-09-23T09:44:49.167Z,1009.65
2023-09-23T09:45:48.400Z,1009.62
2023-09-23T09:46:48.686Z,1009.65
2023-09-23T09:47:48.467Z,1009.69
2023-09-23T09:48:48.603Z,1009.70
2023-09-23T09:49:48.176Z,1009.74
2023-09-23T09:50:48.356Z,1009.73
2023-09-23T09:51:48.337Z,1009.74
2023-09-23T09:52:48.617Z,1009.78
2023-09-23T09:53:48.320Z,1009.78
2023-09-23T09:54:47.617Z,1009.79
2023-09-23T09:55:47.623Z,1009.78
2023-09-23T09:56:48.265Z,1009.76
2023-09-23T09:57:48.255Z,1009.81
2023-09-23T09:58:48.299Z,1009.80
2023-09-23T09:59:47.586Z,1009.79
2023-09-23T10:00:47.615Z,1009.79
2023-09-23T10:01:47.643Z,1009.80
2023-09-23T10:02:48.372Z,1009.79
2023-09-23T10:03:48.820Z,1009.78
2023-09-23T10:04:48.198Z,1009.83
2023-09-23T10:05:47.745Z,1009.77
2023-09-23T10:06:48.164Z,1009.88
2023-09-23T10:07:48.162Z,1009.86
2023-09-23T10:08:49.994Z,1009.83
2023-09-23T10:09:47.454Z,1009.83
2023-09-23T10:10:48.114Z,1009.89
2023-09-23T10:11:47.462Z,1009.86
2023-09-23T10:12:47.418Z,1009.86
2023-09-23T10:13:48.097Z,1009.87
2023-09-23T10:14:48.088Z,1009.86
2023-09-23T10:15:48.055Z,1009.96
2023-09-23T10:16:47.399Z,1009.89
2023-09-23T10:17:47.451Z,1009.96
2023-09-23T10:18:47.668Z,1009.90
2023-09-23T10:19:48.029Z,1009.97
2023-09-23T10:20:47.359Z,1009.92
2023-09-23T10:21:48.018Z,1009.89
2023-09-23T10:22:47.316Z,1009.90
2023-09-23T10:23:47.997Z,1009.90
2023-09-23T10:24:47.968Z,1009.89
2023-09-23T10:25:47.308Z,1009.90
2023-09-23T10:26:47.952Z,1009.93
2023-09-23T10:27:47.272Z,1009.89
2023-09-23T10:28:47.458Z,1009.95
2023-09-23T10:29:47.271Z,1009.90
2023-09-23T10:30:47.270Z,1009.92
2023-09-23T10:31:47.229Z,1009.88
2023-09-23T10:32:47.978Z,1009.91
2023-09-23T10:33:47.888Z,1009.92
2023-09-23T10:34:47.208Z,1009.95
2023-09-23T10:35:47.190Z,1009.99
2023-09-23T10:36:47.179Z,1009.94
2023-09-23T10:37:47.180Z,1009.93
2023-09-23T10:38:48.025Z,1009.97
2023-09-23T10:39:47.797Z,1009.93
2023-09-23T10:40:47.130Z,1009.97
2023-09-23T10:41:47.102Z,1009.97
2023-09-23T10:42:47.103Z,1009.99
2023-09-23T10:43:47.169Z,1009.97
2023-09-23T10:44:47.161Z,1009.99
2023-09-23T10:45:47.063Z,1009.94
2023-09-23T10:46:47.107Z,1010.02
2023-09-23T10:47:47.183Z,1010.05
2023-09-23T10:48:47.883Z,1010.13
2023-09-23T10:49:47.706Z,1010.12
2023-09-23T10:50:47.016Z,1010.14
2023-09-23T10:51:47.021Z,1010.11
2023-09-23T10:52:47.013Z,1010.15
2023-09-23T10:53:47.007Z,1010.18
2023-09-23T10:54:47.655Z,1010.18
2023-09-23T10:55:47.652Z,1010.14
2023-09-23T10:56:47.628Z,1010.18
2023-09-23T10:57:47.918Z,1010.20
2023-09-23T10:58:47.925Z,1010.18
2023-09-23T10:59:47.599Z,1010.18
2023-09-23T11:00:46.925Z,1010.21
2023-09-23T11:01:46.933Z,1010.22
2023-09-23T11:02:47.644Z,1010.23
2023-09-23T11:03:47.002Z,1010.24
2023-09-23T11:04:46.867Z,1010.26
2023-09-23T11:05:47.530Z,1010.29
2023-09-23T11:06:46.887Z,1010.14
2023-09-23T11:07:46.832Z,1010.39
2023-09-23T11:08:47.784Z,1010.37
2023-09-23T11:09:46.824Z,1010.39
2023-09-23T11:10:46.787Z,1010.44
2023-09-23T11:11:46.810Z,1010.41
2023-09-23T11:12:46.819Z,1010.46
2023-09-23T11:13:47.444Z,1010.47
2023-09-23T11:14:47.434Z,1010.45
2023-09-23T11:15:47.407Z,1010.46
2023-09-23T11:16:47.396Z,1010.45
2023-09-23T11:17:47.471Z,1010.49
2023-09-23T11:18:47.551Z,1010.48
2023-09-23T11:19:46.708Z,1010.49
2023-09-23T11:20:47.378Z,1010.54
2023-09-23T11:21:46.689Z,1010.50
2023-09-23T11:22:46.676Z,1010.58
2023-09-23T11:23:46.680Z,1010.59
2023-09-23T11:24:47.333Z,1010.59
2023-09-23T11:25:46.689Z,1010.62
2023-09-23T11:26:47.306Z,1010.56
2023-09-23T11:27:46.655Z,1010.58
2023-09-23T11:28:46.789Z,1010.61
2023-09-23T11:29:46.610Z,1010.57
2023-09-23T11:30:47.253Z,1010.62
2023-09-23T11:31:47.287Z,1010.59
2023-09-23T11:32:46.642Z,1010.57
2023-09-23T11:33:47.227Z,1010.63
2023-09-23T11:34:46.555Z,1010.67
2023-09-23T11:35:46.536Z,1010.65
2023-09-23T11:36:46.535Z,1010.69
2023-09-23T11:37:46.517Z,1010.70
2023-09-23T11:38:46.886Z,1010.72
2023-09-23T11:39:47.144Z,1010.70
2023-09-23T11:40:46.472Z,1010.62
2023-09-23T11:41:46.455Z,1010.67
2023-09-23T11:42:46.475Z,1010.74
2023-09-23T11:43:46.484Z,1010.70
2023-09-23T11:44:47.117Z,1010.80
2023-09-23T11:45:47.101Z,1010.78
2023-09-23T11:46:46.413Z,1010.71
2023-09-23T11:47:46.464Z,1010.81
2023-09-23T11:48:47.255Z,1010.86
2023-09-23T11:49:46.398Z,1010.84
2023-09-23T11:50:47.045Z,1010.80
2023-09-23T11:51:47.027Z,1010.82
2023-09-23T11:52:47.007Z,1010.79
2023-09-23T11:53:46.993Z,1010.85
2023-09-23T11:54:46.385Z,1010.82
2023-09-23T11:55:46.300Z,1010.83
2023-09-23T11:56:46.978Z,1010.80
2023-09-23T11:57:46.959Z,1010.81
2023-09-23T11:59:01.823Z,1010.77
2023-09-23T11:59:47.976Z,1010.78
2023-09-23T12:00:46.270Z,1010.73
2023-09-23T12:01:46.917Z,1010.77
2023-09-23T12:02:46.324Z,1010.76
2023-09-23T12:03:47.079Z,1010.80
2023-09-23T12:04:46.984Z,1010.79
2023-09-23T12:05:46.272Z,1010.79